KSAT/SAT METAR and TAF weather

Enter ICAO airport designator
Station Type Date Time Source
KSAT METAR 2019/10/18 10:51 UTC NOAA

KSAT 181051Z 08003KT 10SM SCT031 BKN250 14/09 A2989 RMK AO2 SLP106 T01440089


Station Type Date Time Source
KSAT Decoded METAR 2019/10/18 10:51 UTC NOAA

SAN ANTONIO INTERNATIONAL AIRPORT , TX, United States (KSAT) 29-32N 098-28W 243M
Oct 18, 2019 - 06:51 AM EDT / 2019.10.18 1051 UTC
Wind: from the E (080 degrees) at 3 MPH (3 KT):0
Visibility: 10 mile(s):0
Sky conditions: mostly cloudy
Temperature: 57.9 F (14.4 C)
Dew Point: 48.0 F (8.9 C)
Relative Humidity: 69%
Pressure (altimeter): 29.89 in. Hg (1012 hPa)
ob: KSAT 181051Z 08003KT 10SM SCT031 BKN250 14/09 A2989 RMK AO2 SLP106 T01440089
cycle: 11

Station Type Date Time Source
KSAT TAF 2019/10/18 12:22 UTC NOAA

TAF KSAT 181120Z 1812/1918 17005KT P6SM FEW035 SCT250
FM191000 20005KT P6SM BKN015
FM191200 23003KT 6SM BR OVC007
FM191500 24005KT P6SM SCT150

Example: see airport list